Time,TemperatureF,DewpointF,PressureIn,WindDirection,WindDirectionDegrees,WindSpeedMPH,WindSpeedGustMPH,Humidity,HourlyPrecipIn,Conditions,Clouds,dailyrainin,SoftwareType,DateUTC
2013-08-29 00:03:00,72.0,70.2,29.95,WSW,238,0.0,0.0,94,0.00,,,0.00,Wunderground v.1.15,2013-08-29 05:03:00,
2013-08-29 00:08:00,71.8,70.0,29.95,WSW,238,0.0,0.0,94,0.00,,,0.00,Wunderground v.1.15,2013-08-29 05:08:00,
2013-08-29 00:14:00,71.8,70.0,29.95,WSW,238,0.0,0.0,94,0.00,,,0.00,Wunderground v.1.15,2013-08-29 05:14:00,
2013-08-29 00:19:00,71.9,70.1,29.95,WSW,238,0.0,0.0,94,0.00,,,0.00,Wunderground v.1.15,2013-08-29 05:19:00,
2013-08-29 00:24:00,71.8,70.0,29.95,WSW,238,0.0,0.0,94,0.00,,,0.00,Wunderground v.1.15,2013-08-29 05:24:00,
2013-08-29 00:29:00,71.8,70.3,29.95,WSW,238,0.0,0.0,95,0.00,,,0.00,Wunderground v.1.15,2013-08-29 05:29:00,
2013-08-29 00:34:00,71.8,70.3,29.95,WSW,238,0.0,0.0,95,0.00,,,0.00,Wunderground v.1.15,2013-08-29 05:34:00,
2013-08-29 00:40:00,71.7,70.2,29.95,WSW,238,0.0,0.0,95,0.00,,,0.00,Wunderground v.1.15,2013-08-29 05:40:00,
2013-08-29 00:45:00,71.8,70.3,29.95,WSW,238,0.0,0.0,95,0.00,,,0.00,Wunderground v.1.15,2013-08-29 05:45:00,
2013-08-29 00:50:00,71.9,70.4,29.95,WSW,238,0.0,0.0,95,0.00,,,0.00,Wunderground v.1.15,2013-08-29 05:50:00,
2013-08-29 00:55:00,71.9,70.4,29.95,WSW,238,0.0,0.0,95,0.00,,,0.00,Wunderground v.1.15,2013-08-29 05:55:00,
2013-08-29 01:00:00,71.8,70.3,29.95,WSW,238,0.0,0.0,95,0.00,,,0.00,Wunderground v.1.15,2013-08-29 06:00:00,
2013-08-29 01:06:00,71.8,70.3,29.95,WSW,238,0.0,0.0,95,0.00,,,0.00,Wunderground v.1.15,2013-08-29 06:06:00,
2013-08-29 01:11:00,71.7,70.2,29.95,WSW,238,0.0,0.0,95,0.00,,,0.00,Wunderground v.1.15,2013-08-29 06:11:00,
2013-08-29 01:17:00,71.4,69.9,29.95,WSW,238,0.0,0.0,95,0.00,,,0.00,Wunderground v.1.15,2013-08-29 06:17:00,
2013-08-29 01:22:00,71.4,69.9,29.95,WSW,238,0.0,0.0,95,0.00,,,0.00,Wunderground v.1.15,2013-08-29 06:22:00,
2013-08-29 01:27:00,71.6,70.4,29.96,NNE,32,0.0,2.0,96,0.00,,,0.00,Wunderground v.1.15,2013-08-29 06:27:00,
2013-08-29 01:32:00,71.7,70.2,29.96,ENE,68,1.0,2.0,95,0.00,,,0.00,Wunderground v.1.15,2013-08-29 06:32:00,
2013-08-29 01:37:00,72.0,70.5,29.96,ENE,58,2.0,2.0,95,0.00,,,0.00,Wunderground v.1.15,2013-08-29 06:37:00,
2013-08-29 01:43:00,72.1,70.6,29.95,SW,217,0.0,1.0,95,0.00,,,0.00,Wunderground v.1.15,2013-08-29 06:43:00,
2013-08-29 01:48:00,72.2,70.7,29.96,SE,129,0.0,1.0,95,0.00,,,0.00,Wunderground v.1.15,2013-08-29 06:48:00,
2013-08-29 01:53:00,72.1,70.6,29.96,SE,146,0.0,0.0,95,0.00,,,0.00,Wunderground v.1.15,2013-08-29 06:53:00,
2013-08-29 01:59:00,72.0,70.5,29.95,SSE,147,0.0,0.0,95,0.00,,,0.00,Wunderground v.1.15,2013-08-29 06:59:00,
2013-08-29 02:05:00,71.8,70.0,29.95,SE,146,0.0,0.0,94,0.00,,,0.00,Wunderground v.1.15,2013-08-29 07:05:00,
2013-08-29 02:10:00,71.7,70.2,29.96,SSE,147,0.0,0.0,95,0.00,,,0.00,Wunderground v.1.15,2013-08-29 07:10:00,
2013-08-29 02:15:00,71.7,70.2,29.96,SSE,147,0.0,0.0,95,0.00,,,0.00,Wunderground v.1.15,2013-08-29 07:15:00,
2013-08-29 02:20:00,71.4,69.9,29.96,SE,146,0.0,0.0,95,0.00,,,0.00,Wunderground v.1.15,2013-08-29 07:20:00,
2013-08-29 02:25:00,71.3,69.8,29.96,SSE,147,0.0,0.0,95,0.00,,,0.00,Wunderground v.1.15,2013-08-29 07:25:00,
2013-08-29 02:31:00,71.3,69.8,29.96,SE,146,0.0,0.0,95,0.00,,,0.00,Wunderground v.1.15,2013-08-29 07:31:00,
2013-08-29 02:36:00,71.3,69.8,29.95,SSE,147,0.0,0.0,95,0.00,,,0.00,Wunderground v.1.15,2013-08-29 07:36:00,
2013-08-29 02:41:00,71.3,69.8,29.95,SE,146,0.0,0.0,95,0.00,,,0.00,Wunderground v.1.15,2013-08-29 07:41:00,
2013-08-29 02:46:00,71.0,69.5,29.95,SSE,147,0.0,0.0,95,0.00,,,0.00,Wunderground v.1.15,2013-08-29 07:46:00,
2013-08-29 02:51:00,70.8,69.3,29.95,SE,146,0.0,0.0,95,0.00,,,0.00,Wunderground v.1.15,2013-08-29 07:51:00,
2013-08-29 02:56:00,70.5,69.0,29.95,SE,146,0.0,0.0,95,0.00,,,0.00,Wunderground v.1.15,2013-08-29 07:56:00,
2013-08-29 03:02:00,70.2,68.7,29.95,SSE,147,0.0,0.0,95,0.00,,,0.00,Wunderground v.1.15,2013-08-29 08:02:00,
2013-08-29 03:07:00,70.1,68.6,29.95,SE,146,0.0,0.0,95,0.00,,,0.00,Wunderground v.1.15,2013-08-29 08:07:00,
2013-08-29 03:12:00,70.0,68.5,29.95,SE,146,0.0,0.0,95,0.00,,,0.00,Wunderground v.1.15,2013-08-29 08:12:00,
2013-08-29 03:17:00,70.1,68.6,29.95,SE,146,0.0,0.0,95,0.00,,,0.00,Wunderground v.1.15,2013-08-29 08:17:00,
2013-08-29 03:22:00,70.2,69.0,29.95,SE,146,0.0,0.0,96,0.00,,,0.00,Wunderground v.1.15,2013-08-29 08:22:00,
2013-08-29 03:28:00,70.1,68.9,29.95,SE,146,0.0,0.0,96,0.00,,,0.00,Wunderground v.1.15,2013-08-29 08:28:00,
2013-08-29 03:33:00,70.1,68.9,29.95,SE,146,0.0,0.0,96,0.00,,,0.00,Wunderground v.1.15,2013-08-29 08:33:00,
2013-08-29 03:38:00,70.0,68.8,29.95,SSE,147,0.0,0.0,96,0.00,,,0.00,Wunderground v.1.15,2013-08-29 08:38:00,
2013-08-29 03:44:00,69.8,68.6,29.95,SE,146,0.0,0.0,96,0.00,,,0.00,Wunderground v.1.15,2013-08-29 08:44:00,
2013-08-29 03:49:00,69.6,68.4,29.95,SE,146,0.0,0.0,96,0.00,,,0.00,Wunderground v.1.15,2013-08-29 08:49:00,
2013-08-29 03:54:00,69.5,68.3,29.94,SSE,147,0.0,0.0,96,0.00,,,0.00,Wunderground v.1.15,2013-08-29 08:54:00,
2013-08-29 03:59:00,69.7,68.5,29.94,SE,146,0.0,0.0,96,0.00,,,0.00,Wunderground v.1.15,2013-08-29 08:59:00,
2013-08-29 04:05:00,69.7,68.5,29.94,SSE,147,0.0,0.0,96,0.00,,,0.00,Wunderground v.1.15,2013-08-29 09:05:00,
2013-08-29 04:10:00,69.8,68.6,29.94,SE,146,0.0,0.0,96,0.00,,,0.00,Wunderground v.1.15,2013-08-29 09:10:00,
2013-08-29 04:15:00,69.7,68.5,29.94,SSE,147,0.0,0.0,96,0.00,,,0.00,Wunderground v.1.15,2013-08-29 09:15:00,
2013-08-29 04:20:00,69.7,68.5,29.94,SE,146,0.0,0.0,96,0.00,,,0.00,Wunderground v.1.15,2013-08-29 09:20:00,
2013-08-29 04:25:00,69.8,68.6,29.94,SSE,147,0.0,0.0,96,0.00,,,0.00,Wunderground v.1.15,2013-08-29 09:25:00,
2013-08-29 04:30:00,69.9,68.7,29.95,NE,46,0.0,0.0,96,0.00,,,0.00,Wunderground v.1.15,2013-08-29 09:30:00,
2013-08-29 04:35:00,69.8,68.6,29.95,NE,47,0.0,0.0,96,0.00,,,0.00,Wunderground v.1.15,2013-08-29 09:35:00,
2013-08-29 04:40:00,69.9,68.7,29.95,NE,47,0.0,0.0,96,0.00,,,0.00,Wunderground v.1.15,2013-08-29 09:40:00,
2013-08-29 04:45:00,70.0,68.8,29.95,NE,47,0.0,0.0,96,0.00,,,0.00,Wunderground v.1.15,2013-08-29 09:45:00,
2013-08-29 04:50:00,70.0,68.8,29.95,NE,47,0.0,0.0,96,0.00,,,0.00,Wunderground v.1.15,2013-08-29 09:50:00,
2013-08-29 04:55:00,69.9,68.7,29.95,NE,46,0.0,0.0,96,0.00,,,0.00,Wunderground v.1.15,2013-08-29 09:55:00,
2013-08-29 05:00:00,69.9,68.7,29.95,NE,47,0.0,0.0,96,0.00,,,0.00,Wunderground v.1.15,2013-08-29 10:00:00,
2013-08-29 05:06:00,69.9,68.7,29.95,NE,47,0.0,0.0,96,0.00,,,0.00,Wunderground v.1.15,2013-08-29 10:06:00,
2013-08-29 05:11:00,69.8,68.6,29.95,NE,46,0.0,0.0,96,0.00,,,0.00,Wunderground v.1.15,2013-08-29 10:11:00,
2013-08-29 05:16:00,69.7,68.5,29.95,NE,47,0.0,0.0,96,0.00,,,0.00,Wunderground v.1.15,2013-08-29 10:16:00,
2013-08-29 05:21:00,69.6,68.4,29.95,NE,47,0.0,0.0,96,0.00,,,0.00,Wunderground v.1.15,2013-08-29 10:21:00,
2013-08-29 05:26:00,69.6,68.4,29.95,NE,47,0.0,0.0,96,0.00,,,0.00,Wunderground v.1.15,2013-08-29 10:26:00,
2013-08-29 05:31:00,69.6,68.7,29.95,NE,47,0.0,0.0,97,0.00,,,0.00,Wunderground v.1.15,2013-08-29 10:31:00,
2013-08-29 05:36:00,69.7,68.8,29.95,NE,47,0.0,0.0,97,0.00,,,0.00,Wunderground v.1.15,2013-08-29 10:36:00,
2013-08-29 05:42:00,69.5,68.3,29.95,NE,47,0.0,0.0,96,0.00,,,0.00,Wunderground v.1.15,2013-08-29 10:42:00,
2013-08-29 05:47:00,69.6,68.7,29.96,NE,47,0.0,0.0,97,0.00,,,0.00,Wunderground v.1.15,2013-08-29 10:47:00,
2013-08-29 05:53:00,69.4,68.5,29.96,NE,47,0.0,0.0,97,0.00,,,0.00,Wunderground v.1.15,2013-08-29 10:53:00,
2013-08-29 05:58:00,69.2,68.3,29.96,NE,46,0.0,0.0,97,0.00,,,0.00,Wunderground v.1.15,2013-08-29 10:58:00,
2013-08-29 06:03:00,69.0,67.8,29.96,NE,47,0.0,0.0,96,0.00,,,0.00,Wunderground v.1.15,2013-08-29 11:03:00,
2013-08-29 06:09:00,68.8,67.9,29.97,NE,40,0.0,0.0,97,0.00,,,0.00,Wunderground v.1.15,2013-08-29 11:09:00,
2013-08-29 06:14:00,68.5,67.3,29.97,NE,41,0.0,0.0,96,0.00,,,0.00,Wunderground v.1.15,2013-08-29 11:14:00,
2013-08-29 06:19:00,68.4,67.5,29.97,NW,319,0.0,1.0,97,0.00,,,0.00,Wunderground v.1.15,2013-08-29 11:19:00,
2013-08-29 06:24:00,68.5,67.6,29.98,NW,319,0.0,0.0,97,0.00,,,0.00,Wunderground v.1.15,2013-08-29 11:24:00,
2013-08-29 06:29:00,68.6,67.7,29.98,NW,319,0.0,0.0,97,0.00,,,0.00,Wunderground v.1.15,2013-08-29 11:29:00,
2013-08-29 06:35:00,68.8,67.9,29.98,NW,319,0.0,0.0,97,0.00,,,0.00,Wunderground v.1.15,2013-08-29 11:35:00,
2013-08-29 06:40:00,68.9,68.0,29.98,NW,319,0.0,0.0,97,0.00,,,0.00,Wunderground v.1.15,2013-08-29 11:40:00,
2013-08-29 06:45:00,69.0,68.1,29.98,NW,319,0.0,0.0,97,0.00,,,0.00,Wunderground v.1.15,2013-08-29 11:45:00,
2013-08-29 06:51:00,69.2,68.3,29.98,NW,319,0.0,0.0,97,0.00,,,0.00,Wunderground v.1.15,2013-08-29 11:51:00,
2013-08-29 06:56:00,69.4,68.5,29.98,NW,319,0.0,0.0,97,0.00,,,0.00,Wunderground v.1.15,2013-08-29 11:56:00,
2013-08-29 07:01:00,69.6,68.7,29.98,NW,319,0.0,0.0,97,0.00,,,0.00,Wunderground v.1.15,2013-08-29 12:01:00,
2013-08-29 07:06:00,69.9,69.0,29.98,NW,319,0.0,0.0,97,0.00,,,0.00,Wunderground v.1.15,2013-08-29 12:06:00,
2013-08-29 07:11:00,70.1,69.2,29.98,NW,319,0.0,0.0,97,0.00,,,0.00,Wunderground v.1.15,2013-08-29 12:11:00,
2013-08-29 07:17:00,70.5,69.6,29.98,NW,319,0.0,0.0,97,0.00,,,0.00,Wunderground v.1.15,2013-08-29 12:17:00,
2013-08-29 07:22:00,71.2,70.3,29.98,NW,319,0.0,0.0,97,0.00,,,0.00,Wunderground v.1.15,2013-08-29 12:22:00,
2013-08-29 07:27:00,72.3,71.4,29.98,NW,319,0.0,0.0,97,0.00,,,0.00,Wunderground v.1.15,2013-08-29 12:27:00,
2013-08-29 07:32:00,73.3,72.4,29.98,NW,319,0.0,0.0,97,0.00,,,0.00,Wunderground v.1.15,2013-08-29 12:32:00,
2013-08-29 07:37:00,74.0,73.1,29.98,NW,319,0.0,0.0,97,0.00,,,0.00,Wunderground v.1.15,2013-08-29 12:37:00,
2013-08-29 07:42:00,74.4,73.5,29.98,NW,319,0.0,0.0,97,0.00,,,0.00,Wunderground v.1.15,2013-08-29 12:42:00,
2013-08-29 07:47:00,74.7,73.8,29.98,NW,321,0.0,0.0,97,0.00,,,0.00,Wunderground v.1.15,2013-08-29 12:47:00,
2013-08-29 07:52:00,74.9,73.7,29.98,North,4,0.0,0.0,96,0.00,,,0.00,Wunderground v.1.15,2013-08-29 12:52:00,
2013-08-29 07:57:00,75.5,74.3,29.98,NNE,17,0.0,0.0,96,0.00,,,0.00,Wunderground v.1.15,2013-08-29 12:57:00,
2013-08-29 08:02:00,76.2,75.0,29.98,ENE,72,0.0,1.0,96,0.00,,,0.00,Wunderground v.1.15,2013-08-29 13:02:00,
2013-08-29 08:07:00,76.6,74.7,29.98,ENE,72,0.0,3.0,94,0.00,,,0.00,Wunderground v.1.15,2013-08-29 13:07:00,
2013-08-29 08:13:00,76.7,74.8,29.98,East,82,1.0,2.0,94,0.00,,,0.00,Wunderground v.1.15,2013-08-29 13:13:00,
2013-08-29 08:18:00,77.0,74.8,29.98,ENE,65,1.0,2.0,93,0.00,,,0.00,Wunderground v.1.15,2013-08-29 13:18:00,
2013-08-29 08:23:00,77.4,75.2,29.98,ENE,71,1.0,2.0,93,0.00,,,0.00,Wunderground v.1.15,2013-08-29 13:23:00,
2013-08-29 08:28:00,77.9,75.4,29.98,NE,41,1.0,2.0,92,0.00,,,0.00,Wunderground v.1.15,2013-08-29 13:28:00,
2013-08-29 08:34:00,78.1,75.3,29.98,NNW,331,1.0,3.0,91,0.00,,,0.00,Wunderground v.1.15,2013-08-29 13:34:00,
2013-08-29 08:39:00,78.6,75.8,29.98,North,356,2.0,3.0,91,0.00,,,0.00,Wunderground v.1.15,2013-08-29 13:39:00,
2013-08-29 08:44:00,79.0,75.8,29.99,NE,34,1.0,3.0,90,0.00,,,0.00,Wunderground v.1.15,2013-08-29 13:44:00,
2013-08-29 08:49:00,79.5,76.3,29.99,NNE,14,1.0,3.0,90,0.00,,,0.00,Wunderground v.1.15,2013-08-29 13:49:00,
2013-08-29 08:55:00,80.1,76.6,29.99,East,92,1.0,2.0,89,0.00,,,0.00,Wunderground v.1.15,2013-08-29 13:55:00,
2013-08-29 09:00:00,80.5,76.6,29.99,ENE,59,1.0,1.0,88,0.00,,,0.00,Wunderground v.1.15,2013-08-29 14:00:00,
2013-08-29 09:06:00,81.0,76.8,29.99,NNE,27,1.0,2.0,87,0.00,,,0.00,Wunderground v.1.15,2013-08-29 14:06:00,
2013-08-29 09:11:00,81.3,76.7,29.99,NNW,343,1.0,3.0,86,0.00,,,0.00,Wunderground v.1.15,2013-08-29 14:11:00,
2013-08-29 09:16:00,81.7,77.5,29.99,NE,36,0.0,3.0,87,0.00,,,0.00,Wunderground v.1.15,2013-08-29 14:16:00,
2013-08-29 09:21:00,82.1,77.5,29.99,NE,35,0.0,1.0,86,0.00,,,0.00,Wunderground v.1.15,2013-08-29 14:21:00,
2013-08-29 09:26:00,82.1,77.1,29.99,ENE,75,1.0,2.0,85,0.00,,,0.00,Wunderground v.1.15,2013-08-29 14:26:00,
2013-08-29 09:31:00,82.5,77.5,30.00,WNW,293,1.0,2.0,85,0.00,,,0.00,Wunderground v.1.15,2013-08-29 14:31:00,
2013-08-29 09:37:00,83.0,77.7,30.00,NNE,29,1.0,3.0,84,0.00,,,0.00,Wunderground v.1.15,2013-08-29 14:37:00,
2013-08-29 09:43:00,83.1,77.8,29.99,NW,312,1.0,2.0,84,0.00,,,0.00,Wunderground v.1.15,2013-08-29 14:43:00,
2013-08-29 09:48:00,83.2,77.9,29.99,WNW,293,1.0,3.0,84,0.00,,,0.00,Wunderground v.1.15,2013-08-29 14:48:00,
2013-08-29 09:53:00,83.4,77.7,30.00,East,84,1.0,3.0,83,0.00,,,0.00,Wunderground v.1.15,2013-08-29 14:53:00,
2013-08-29 09:58:00,83.7,78.0,30.00,North,360,1.0,4.0,83,0.00,,,0.00,Wunderground v.1.15,2013-08-29 14:58:00,
2013-08-29 10:03:00,84.3,78.6,30.00,East,94,1.0,2.0,83,0.00,,,0.00,Wunderground v.1.15,2013-08-29 15:03:00,
2013-08-29 10:08:00,84.9,79.2,30.00,ENE,72,1.0,3.0,83,0.00,,,0.00,Wunderground v.1.15,2013-08-29 15:08:00,
2013-08-29 10:14:00,84.9,78.4,30.00,NE,48,1.0,5.0,81,0.00,,,0.00,Wunderground v.1.15,2013-08-29 15:14:00,
2013-08-29 10:19:00,84.6,78.1,30.00,NW,316,2.0,5.0,81,0.00,,,0.00,Wunderground v.1.15,2013-08-29 15:19:00,
2013-08-29 10:24:00,84.7,78.6,30.00,WNW,300,2.0,4.0,82,0.00,,,0.00,Wunderground v.1.15,2013-08-29 15:24:00,
2013-08-29 10:29:00,84.7,78.6,30.00,NE,34,1.0,4.0,82,0.00,,,0.00,Wunderground v.1.15,2013-08-29 15:29:00,
2013-08-29 10:34:00,84.8,78.7,30.00,NNE,20,2.0,3.0,82,0.00,,,0.00,Wunderground v.1.15,2013-08-29 15:34:00,
2013-08-29 10:39:00,84.7,78.6,30.00,NNE,18,2.0,3.0,82,0.00,,,0.00,Wunderground v.1.15,2013-08-29 15:39:00,
2013-08-29 10:44:00,85.1,79.0,30.00,NNW,330,2.0,2.0,82,0.00,,,0.00,Wunderground v.1.15,2013-08-29 15:44:00,
2013-08-29 10:49:00,85.1,78.2,30.00,NNE,27,1.0,3.0,80,0.00,,,0.00,Wunderground v.1.15,2013-08-29 15:49:00,
2013-08-29 10:54:00,85.2,78.3,30.00,NNW,345,1.0,5.0,80,0.00,,,0.00,Wunderground v.1.15,2013-08-29 15:54:00,
2013-08-29 10:59:00,85.3,79.2,30.00,ENE,63,1.0,5.0,82,0.00,,,0.00,Wunderground v.1.15,2013-08-29 15:59:00,
2013-08-29 11:05:00,85.4,78.9,30.00,East,98,2.0,3.0,81,0.00,,,0.00,Wunderground v.1.15,2013-08-29 16:05:00,
2013-08-29 11:10:00,85.7,78.8,30.00,ESE,120,1.0,1.0,80,0.00,,,0.00,Wunderground v.1.15,2013-08-29 16:10:00,
2013-08-29 11:15:00,86.0,78.7,30.00,North,4,1.0,4.0,79,0.00,,,0.00,Wunderground v.1.15,2013-08-29 16:15:00,
2013-08-29 11:20:00,86.0,78.7,30.00,NNW,328,2.0,2.0,79,0.00,,,0.00,Wunderground v.1.15,2013-08-29 16:20:00,
2013-08-29 11:25:00,85.8,79.3,29.99,NNW,332,2.0,3.0,81,0.00,,,0.00,Wunderground v.1.15,2013-08-29 16:25:00,
2013-08-29 11:30:00,86.3,79.8,29.99,NE,48,2.0,3.0,81,0.00,,,0.00,Wunderground v.1.15,2013-08-29 16:30:00,
2013-08-29 11:35:00,86.3,79.4,29.99,ENE,60,2.0,4.0,80,0.00,,,0.00,Wunderground v.1.15,2013-08-29 16:35:00,
2013-08-29 11:40:00,86.5,79.2,29.99,NNE,16,2.0,3.0,79,0.00,,,0.00,Wunderground v.1.15,2013-08-29 16:40:00,
2013-08-29 11:45:00,86.8,79.5,29.99,NE,37,2.0,5.0,79,0.00,,,0.00,Wunderground v.1.15,2013-08-29 16:45:00,
2013-08-29 11:50:00,86.5,78.8,29.99,NW,321,3.0,4.0,78,0.00,,,0.00,Wunderground v.1.15,2013-08-29 16:50:00,
2013-08-29 11:56:00,86.5,78.4,29.99,NW,318,2.0,4.0,77,0.00,,,0.00,Wunderground v.1.15,2013-08-29 16:56:00,
2013-08-29 12:01:00,86.8,79.1,29.99,NE,39,2.0,4.0,78,0.00,,,0.00,Wunderground v.1.15,2013-08-29 17:01:00,
2013-08-29 12:06:00,87.1,79.0,29.99,ENE,57,2.0,4.0,77,0.00,,,0.00,Wunderground v.1.15,2013-08-29 17:06:00,
2013-08-29 12:11:00,87.4,79.3,29.99,ENE,59,2.0,2.0,77,0.00,,,0.00,Wunderground v.1.15,2013-08-29 17:11:00,
2013-08-29 12:16:00,87.3,79.2,29.99,North,353,2.0,3.0,77,0.00,,,0.00,Wunderground v.1.15,2013-08-29 17:16:00,
2013-08-29 12:21:00,87.0,78.5,29.99,WNW,284,2.0,2.0,76,0.00,,,0.00,Wunderground v.1.15,2013-08-29 17:21:00,
2013-08-29 12:27:00,87.3,79.6,29.99,NNE,30,2.0,5.0,78,0.00,,,0.00,Wunderground v.1.15,2013-08-29 17:27:00,
2013-08-29 12:32:00,87.8,79.7,29.99,NNW,345,2.0,4.0,77,0.00,,,0.00,Wunderground v.1.15,2013-08-29 17:32:00,
2013-08-29 12:37:00,88.1,78.8,29.99,North,1,2.0,4.0,74,0.00,,,0.00,Wunderground v.1.15,2013-08-29 17:37:00,
2013-08-29 12:42:00,88.2,78.9,29.99,ENE,63,3.0,4.0,74,0.00,,,0.00,Wunderground v.1.15,2013-08-29 17:42:00,
2013-08-29 12:48:00,88.2,78.4,29.99,NE,41,3.0,4.0,73,0.00,,,0.00,Wunderground v.1.15,2013-08-29 17:48:00,
2013-08-29 12:53:00,88.0,78.3,29.99,North,9,3.0,3.0,73,0.00,,,0.00,Wunderground v.1.15,2013-08-29 17:53:00,
2013-08-29 12:58:00,88.0,78.7,29.99,NW,311,2.0,3.0,74,0.00,,,0.00,Wunderground v.1.15,2013-08-29 17:58:00,
2013-08-29 13:03:00,88.1,78.8,29.98,NNW,347,2.0,4.0,74,0.00,,,0.00,Wunderground v.1.15,2013-08-29 18:03:00,
2013-08-29 13:08:00,88.2,78.4,29.98,SSE,153,2.0,4.0,73,0.00,,,0.00,Wunderground v.1.15,2013-08-29 18:08:00,
2013-08-29 13:13:00,88.6,78.8,29.98,NE,46,2.0,3.0,73,0.00,,,0.00,Wunderground v.1.15,2013-08-29 18:13:00,
2013-08-29 13:18:00,88.8,78.6,29.98,East,96,2.0,3.0,72,0.00,,,0.00,Wunderground v.1.15,2013-08-29 18:18:00,
2013-08-29 13:23:00,88.8,79.4,29.98,ENE,69,2.0,3.0,74,0.00,,,0.00,Wunderground v.1.15,2013-08-29 18:23:00,
2013-08-29 13:29:00,89.0,78.8,29.98,NNW,337,3.0,5.0,72,0.00,,,0.00,Wunderground v.1.15,2013-08-29 18:29:00,
2013-08-29 13:34:00,89.0,78.8,29.98,NNW,330,2.0,4.0,72,0.00,,,0.00,Wunderground v.1.15,2013-08-29 18:34:00,
2013-08-29 13:39:00,88.7,78.5,29.98,ENE,78,3.0,4.0,72,0.00,,,0.00,Wunderground v.1.15,2013-08-29 18:39:00,
2013-08-29 13:45:00,88.5,78.7,29.98,NNE,30,3.0,5.0,73,0.00,,,0.00,Wunderground v.1.15,2013-08-29 18:45:00,
2013-08-29 13:50:00,88.7,78.5,29.97,ENE,70,2.0,2.0,72,0.00,,,0.00,Wunderground v.1.15,2013-08-29 18:50:00,
2013-08-29 13:55:00,89.2,79.0,29.97,NW,318,2.0,3.0,72,0.00,,,0.00,Wunderground v.1.15,2013-08-29 18:55:00,
2013-08-29 14:00:00,89.8,79.6,29.97,NNE,29,2.0,2.0,72,0.00,,,0.00,Wunderground v.1.15,2013-08-29 19:00:00,
2013-08-29 14:06:00,89.7,79.0,29.97,North,350,3.0,4.0,71,0.00,,,0.00,Wunderground v.1.15,2013-08-29 19:06:00,
2013-08-29 14:11:00,89.6,78.5,29.97,NW,321,2.0,2.0,70,0.00,,,0.00,Wunderground v.1.15,2013-08-29 19:11:00,
2013-08-29 14:16:00,89.7,78.6,29.97,WNW,284,2.0,2.0,70,0.00,,,0.00,Wunderground v.1.15,2013-08-29 19:16:00,
2013-08-29 14:21:00,90.0,78.9,29.96,NNE,20,2.0,2.0,70,0.00,,,0.00,Wunderground v.1.15,2013-08-29 19:21:00,
2013-08-29 14:27:00,90.5,78.9,29.96,NE,38,2.0,3.0,69,0.00,,,0.00,Wunderground v.1.15,2013-08-29 19:27:00,
2013-08-29 14:33:00,90.1,78.6,29.96,NW,311,2.0,3.0,69,0.00,,,0.00,Wunderground v.1.15,2013-08-29 19:33:00,
2013-08-29 14:38:00,90.0,78.5,29.96,North,356,3.0,3.0,69,0.00,,,0.00,Wunderground v.1.15,2013-08-29 19:38:00,
2013-08-29 14:43:00,90.1,79.0,29.96,NNW,345,2.0,4.0,70,0.00,,,0.00,Wunderground v.1.15,2013-08-29 19:43:00,
2013-08-29 14:48:00,90.3,78.7,29.95,NW,316,2.0,4.0,69,0.00,,,0.00,Wunderground v.1.15,2013-08-29 19:48:00,
2013-08-29 14:53:00,90.5,78.9,29.95,NNW,329,2.0,3.0,69,0.00,,,0.00,Wunderground v.1.15,2013-08-29 19:53:00,
2013-08-29 14:58:00,90.5,78.9,29.95,NE,39,2.0,4.0,69,0.00,,,0.00,Wunderground v.1.15,2013-08-29 19:58:00,
2013-08-29 15:04:00,90.6,79.0,29.95,WNW,289,3.0,4.0,69,0.00,,,0.00,Wunderground v.1.15,2013-08-29 20:04:00,
2013-08-29 15:09:00,90.7,79.1,29.95,NNW,347,3.0,5.0,69,0.00,,,0.00,Wunderground v.1.15,2013-08-29 20:09:00,
2013-08-29 15:15:00,90.6,79.0,29.95,NE,36,3.0,6.0,69,0.00,,,0.00,Wunderground v.1.15,2013-08-29 20:15:00,
2013-08-29 15:20:00,90.4,79.3,29.95,NNE,15,2.0,5.0,70,0.00,,,0.00,Wunderground v.1.15,2013-08-29 20:20:00,
2013-08-29 15:25:00,90.3,78.7,29.95,NW,310,2.0,5.0,69,0.00,,,0.00,Wunderground v.1.15,2013-08-29 20:25:00,
2013-08-29 15:30:00,90.2,78.6,29.95,WNW,301,2.0,3.0,69,0.00,,,0.00,Wunderground v.1.15,2013-08-29 20:30:00,
2013-08-29 15:35:00,90.1,78.6,29.95,NNW,333,2.0,3.0,69,0.00,,,0.00,Wunderground v.1.15,2013-08-29 20:35:00,
2013-08-29 15:40:00,90.0,78.9,29.95,NW,325,2.0,3.0,70,0.00,,,0.00,Wunderground v.1.15,2013-08-29 20:40:00,
2013-08-29 15:45:00,90.0,78.5,29.95,NNW,348,2.0,4.0,69,0.00,,,0.00,Wunderground v.1.15,2013-08-29 20:45:00,
2013-08-29 15:50:00,89.9,78.8,29.95,NNE,33,2.0,4.0,70,0.00,,,0.00,Wunderground v.1.15,2013-08-29 20:50:00,
2013-08-29 15:55:00,89.8,79.1,29.95,NW,311,2.0,4.0,71,0.00,,,0.00,Wunderground v.1.15,2013-08-29 20:55:00,
2013-08-29 16:00:00,90.0,78.9,29.94,North,7,2.0,3.0,70,0.00,,,0.00,Wunderground v.1.15,2013-08-29 21:00:00,
2013-08-29 16:06:00,89.9,78.8,29.94,NNE,20,2.0,5.0,70,0.00,,,0.00,Wunderground v.1.15,2013-08-29 21:06:00,
2013-08-29 16:12:00,89.7,79.0,29.94,ENE,69,2.0,4.0,71,0.00,,,0.00,Wunderground v.1.15,2013-08-29 21:12:00,
2013-08-29 16:17:00,90.0,78.9,29.94,NNE,32,2.0,4.0,70,0.00,,,0.00,Wunderground v.1.15,2013-08-29 21:17:00,
2013-08-29 16:22:00,89.7,78.6,29.94,NE,54,2.0,2.0,70,0.00,,,0.00,Wunderground v.1.15,2013-08-29 21:22:00,
2013-08-29 16:27:00,88.8,77.7,29.94,NE,38,3.0,3.0,70,0.00,,,0.00,Wunderground v.1.15,2013-08-29 21:27:00,
2013-08-29 16:32:00,88.1,77.9,29.94,ENE,57,2.0,3.0,72,0.00,,,0.00,Wunderground v.1.15,2013-08-29 21:32:00,
2013-08-29 16:37:00,87.9,78.6,29.94,NE,46,1.0,3.0,74,0.00,,,0.00,Wunderground v.1.15,2013-08-29 21:37:00,
2013-08-29 16:43:00,87.6,77.9,29.94,NNE,16,1.0,2.0,73,0.00,,,0.00,Wunderground v.1.15,2013-08-29 21:43:00,
2013-08-29 16:48:00,87.8,78.5,29.94,North,6,1.0,2.0,74,0.00,,,0.00,Wunderground v.1.15,2013-08-29 21:48:00,
2013-08-29 16:53:00,88.1,78.8,29.94,North,354,0.0,3.0,74,0.00,,,0.00,Wunderground v.1.15,2013-08-29 21:53:00,
2013-08-29 16:58:00,87.9,78.2,29.94,North,8,1.0,3.0,73,0.00,,,0.00,Wunderground v.1.15,2013-08-29 21:58:00,
2013-08-29 17:03:00,87.9,78.6,29.93,NNE,23,1.0,1.0,74,0.00,,,0.00,Wunderground v.1.15,2013-08-29 22:03:00,
2013-08-29 17:08:00,88.5,79.1,29.93,NNE,27,1.0,2.0,74,0.00,,,0.00,Wunderground v.1.15,2013-08-29 22:08:00,
2013-08-29 17:13:00,88.9,78.7,29.93,NE,50,1.0,3.0,72,0.00,,,0.00,Wunderground v.1.15,2013-08-29 22:13:00,
2013-08-29 17:18:00,88.9,79.1,29.93,ENE,71,2.0,4.0,73,0.00,,,0.00,Wunderground v.1.15,2013-08-29 22:18:00,
2013-08-29 17:23:00,89.2,79.0,29.93,NE,39,1.0,3.0,72,0.00,,,0.00,Wunderground v.1.15,2013-08-29 22:23:00,
2013-08-29 17:28:00,89.1,78.5,29.93,NNE,18,1.0,3.0,71,0.00,,,0.00,Wunderground v.1.15,2013-08-29 22:28:00,
2013-08-29 17:34:00,88.7,78.1,29.93,ENE,60,2.0,3.0,71,0.00,,,0.00,Wunderground v.1.15,2013-08-29 22:34:00,
2013-08-29 17:39:00,88.6,78.0,29.93,NNE,24,2.0,4.0,71,0.00,,,0.00,Wunderground v.1.15,2013-08-29 22:39:00,
2013-08-29 17:44:00,88.7,78.5,29.93,NNE,13,1.0,2.0,72,0.00,,,0.00,Wunderground v.1.15,2013-08-29 22:44:00,
2013-08-29 17:49:00,88.9,78.3,29.93,North,4,1.0,2.0,71,0.00,,,0.00,Wunderground v.1.15,2013-08-29 22:49:00,
2013-08-29 17:54:00,89.0,78.4,29.93,NNW,345,0.0,1.0,71,0.00,,,0.00,Wunderground v.1.15,2013-08-29 22:54:00,
2013-08-29 17:59:00,88.9,78.3,29.93,NE,39,1.0,3.0,71,0.00,,,0.00,Wunderground v.1.15,2013-08-29 22:59:00,
2013-08-29 18:05:00,88.7,78.1,29.93,North,6,1.0,1.0,71,0.00,,,0.00,Wunderground v.1.15,2013-08-29 23:05:00,
2013-08-29 18:10:00,88.2,77.6,29.93,NE,34,1.0,1.0,71,0.00,,,0.00,Wunderground v.1.15,2013-08-29 23:10:00,
2013-08-29 18:16:00,88.0,77.8,29.93,ENE,57,0.0,1.0,72,0.00,,,0.00,Wunderground v.1.15,2013-08-29 23:16:00,
2013-08-29 18:21:00,88.3,78.1,29.93,NE,56,0.0,0.0,72,0.00,,,0.00,Wunderground v.1.15,2013-08-29 23:21:00,
2013-08-29 18:26:00,88.6,78.4,29.93,North,356,0.0,1.0,72,0.00,,,0.00,Wunderground v.1.15,2013-08-29 23:26:00,
2013-08-29 18:31:00,88.6,78.8,29.93,NNE,13,0.0,0.0,73,0.00,,,0.00,Wunderground v.1.15,2013-08-29 23:31:00,
2013-08-29 18:36:00,88.8,79.8,29.93,NNE,13,0.0,0.0,75,0.00,,,0.00,Wunderground v.1.15,2013-08-29 23:36:00,
2013-08-29 18:41:00,89.2,79.4,29.93,NNE,13,0.0,0.0,73,0.00,,,0.00,Wunderground v.1.15,2013-08-29 23:41:00,
2013-08-29 18:46:00,89.3,78.7,29.93,NNE,20,0.0,0.0,71,0.00,,,0.00,Wunderground v.1.15,2013-08-29 23:46:00,
2013-08-29 18:52:00,88.8,79.8,29.93,NNE,20,0.0,0.0,75,0.00,,,0.00,Wunderground v.1.15,2013-08-29 23:52:00,
2013-08-29 18:57:00,87.9,80.2,29.93,NNE,20,0.0,0.0,78,0.00,,,0.00,Wunderground v.1.15,2013-08-29 23:57:00,
2013-08-29 19:02:00,87.4,79.7,29.94,NNE,20,0.0,0.0,78,0.00,,,0.00,Wunderground v.1.15,2013-08-30 00:02:00,
2013-08-29 19:07:00,87.1,79.8,29.94,NNE,20,0.0,0.0,79,0.00,,,0.00,Wunderground v.1.15,2013-08-30 00:07:00,
2013-08-29 19:13:00,86.1,78.8,29.94,NNE,20,0.0,0.0,79,0.00,,,0.00,Wunderground v.1.15,2013-08-30 00:13:00,
2013-08-29 19:18:00,84.9,78.8,29.93,NNE,20,0.0,0.0,82,0.00,,,0.00,Wunderground v.1.15,2013-08-30 00:18:00,
2013-08-29 19:23:00,84.0,78.3,29.93,NNE,20,0.0,0.0,83,0.00,,,0.00,Wunderground v.1.15,2013-08-30 00:23:00,
2013-08-29 19:28:00,83.2,78.2,29.94,NNE,20,0.0,0.0,85,0.00,,,0.00,Wunderground v.1.15,2013-08-30 00:28:00,
2013-08-29 19:33:00,82.6,77.6,29.94,NNE,20,0.0,0.0,85,0.00,,,0.00,Wunderground v.1.15,2013-08-30 00:33:00,
2013-08-29 19:38:00,82.0,77.4,29.94,NNE,20,0.0,0.0,86,0.00,,,0.00,Wunderground v.1.15,2013-08-30 00:38:00,
2013-08-29 19:43:00,81.5,77.3,29.94,NNE,20,0.0,0.0,87,0.00,,,0.00,Wunderground v.1.15,2013-08-30 00:43:00,
2013-08-29 19:49:00,81.0,77.1,29.94,NNE,20,0.0,0.0,88,0.00,,,0.00,Wunderground v.1.15,2013-08-30 00:49:00,
2013-08-29 19:54:00,80.7,77.2,29.94,NNE,20,0.0,0.0,89,0.00,,,0.00,Wunderground v.1.15,2013-08-30 00:54:00,
2013-08-29 19:59:00,80.3,76.8,29.94,NNE,20,0.0,0.0,89,0.00,,,0.00,Wunderground v.1.15,2013-08-30 00:59:00,
2013-08-29 20:05:00,79.9,76.7,29.94,NNE,20,0.0,0.0,90,0.00,,,0.00,Wunderground v.1.15,2013-08-30 01:05:00,
2013-08-29 20:10:00,79.6,76.4,29.94,NNE,20,0.0,0.0,90,0.00,,,0.00,Wunderground v.1.15,2013-08-30 01:10:00,
2013-08-29 20:15:00,79.1,75.9,29.94,NNE,20,0.0,0.0,90,0.00,,,0.00,Wunderground v.1.15,2013-08-30 01:15:00,
2013-08-29 20:20:00,78.7,75.5,29.95,NNE,20,0.0,0.0,90,0.00,,,0.00,Wunderground v.1.15,2013-08-30 01:20:00,
2013-08-29 20:25:00,78.4,75.6,29.94,NNE,20,0.0,0.0,91,0.00,,,0.00,Wunderground v.1.15,2013-08-30 01:25:00,
2013-08-29 20:31:00,78.3,75.8,29.95,NNE,20,0.0,0.0,92,0.00,,,0.00,Wunderground v.1.15,2013-08-30 01:31:00,
2013-08-29 20:36:00,78.2,75.7,29.95,NNE,20,0.0,0.0,92,0.00,,,0.00,Wunderground v.1.15,2013-08-30 01:36:00,
2013-08-29 20:41:00,78.0,75.5,29.95,NNE,20,0.0,0.0,92,0.00,,,0.00,Wunderground v.1.15,2013-08-30 01:41:00,
2013-08-29 20:47:00,77.8,75.6,29.95,NNE,20,0.0,0.0,93,0.00,,,0.00,Wunderground v.1.15,2013-08-30 01:47:00,
2013-08-29 20:52:00,77.7,75.5,29.95,NNE,20,0.0,0.0,93,0.00,,,0.00,Wunderground v.1.15,2013-08-30 01:52:00,
2013-08-29 20:58:00,77.4,75.2,29.95,NNE,20,0.0,0.0,93,0.00,,,0.00,Wunderground v.1.15,2013-08-30 01:58:00,
2013-08-29 21:03:00,77.2,75.0,29.95,NNE,20,0.0,0.0,93,0.00,,,0.00,Wunderground v.1.15,2013-08-30 02:03:00,
2013-08-29 21:09:00,77.0,75.1,29.95,NNE,20,0.0,0.0,94,0.00,,,0.00,Wunderground v.1.15,2013-08-30 02:09:00,
2013-08-29 21:14:00,76.8,74.9,29.95,NNE,20,0.0,0.0,94,0.00,,,0.00,Wunderground v.1.15,2013-08-30 02:14:00,
2013-08-29 21:19:00,76.5,74.6,29.95,NNE,20,0.0,0.0,94,0.00,,,0.00,Wunderground v.1.15,2013-08-30 02:19:00,
2013-08-29 21:24:00,76.3,74.4,29.95,NNE,20,0.0,0.0,94,0.00,,,0.00,Wunderground v.1.15,2013-08-30 02:24:00,
2013-08-29 21:29:00,76.6,75.1,29.95,NNE,20,0.0,0.0,95,0.00,,,0.00,Wunderground v.1.15,2013-08-30 02:29:00,
2013-08-29 21:35:00,76.6,75.1,29.95,NNE,20,0.0,0.0,95,0.00,,,0.00,Wunderground v.1.15,2013-08-30 02:35:00,
2013-08-29 21:40:00,76.5,75.0,29.95,NNE,20,0.0,0.0,95,0.00,,,0.00,Wunderground v.1.15,2013-08-30 02:40:00,
2013-08-29 21:45:00,76.2,74.7,29.95,NNE,20,0.0,0.0,95,0.00,,,0.00,Wunderground v.1.15,2013-08-30 02:45:00,
2013-08-29 21:51:00,76.1,74.6,29.95,NNE,20,0.0,0.0,95,0.00,,,0.00,Wunderground v.1.15,2013-08-30 02:51:00,
2013-08-29 21:56:00,75.9,74.4,29.94,NNE,20,0.0,0.0,95,0.00,,,0.00,Wunderground v.1.15,2013-08-30 02:56:00,
2013-08-29 22:02:00,75.5,74.0,29.95,NNE,20,0.0,0.0,95,0.00,,,0.00,Wunderground v.1.15,2013-08-30 03:02:00,
2013-08-29 22:07:00,75.4,73.9,29.95,NNE,20,0.0,0.0,95,0.00,,,0.00,Wunderground v.1.15,2013-08-30 03:07:00,
2013-08-29 22:12:00,75.3,73.8,29.95,NNE,20,0.0,0.0,95,0.00,,,0.00,Wunderground v.1.15,2013-08-30 03:12:00,
2013-08-29 22:17:00,75.0,73.5,29.94,NNE,20,0.0,0.0,95,0.00,,,0.00,Wunderground v.1.15,2013-08-30 03:17:00,
2013-08-29 22:22:00,75.2,74.0,29.95,NNE,20,0.0,0.0,96,0.00,,,0.00,Wunderground v.1.15,2013-08-30 03:22:00,
2013-08-29 22:28:00,75.3,74.1,29.95,NNE,20,0.0,0.0,96,0.00,,,0.00,Wunderground v.1.15,2013-08-30 03:28:00,
2013-08-29 22:33:00,75.4,74.2,29.94,NNE,20,0.0,0.0,96,0.00,,,0.00,Wunderground v.1.15,2013-08-30 03:33:00,
2013-08-29 22:38:00,75.2,74.0,29.94,NNE,20,0.0,0.0,96,0.00,,,0.00,Wunderground v.1.15,2013-08-30 03:38:00,
2013-08-29 22:44:00,75.1,73.9,29.94,NNE,20,0.0,0.0,96,0.00,,,0.00,Wunderground v.1.15,2013-08-30 03:44:00,
2013-08-29 22:49:00,75.0,73.8,29.94,NNE,20,0.0,0.0,96,0.00,,,0.00,Wunderground v.1.15,2013-08-30 03:49:00,
2013-08-29 22:54:00,74.8,73.6,29.94,NNE,20,0.0,0.0,96,0.00,,,0.00,Wunderground v.1.15,2013-08-30 03:54:00,
2013-08-29 22:59:00,74.7,73.5,29.94,NNE,20,0.0,0.0,96,0.00,,,0.00,Wunderground v.1.15,2013-08-30 03:59:00,
2013-08-29 23:01:00,74.7,73.5,29.94,NNE,20,0.0,0.0,96,0.00,,,0.00,Wunderground v.1.15,2013-08-30 04:01:00,
2013-08-29 23:02:00,74.6,73.4,29.94,NNE,20,0.0,0.0,96,0.00,,,0.00,Wunderground v.1.15,2013-08-30 04:02:00,
2013-08-29 23:03:00,74.7,73.5,29.94,NNE,20,0.0,0.0,96,0.00,,,0.00,Wunderground v.1.15,2013-08-30 04:03:00,
2013-08-29 23:08:00,74.6,73.4,29.94,NNE,20,0.0,0.0,96,0.00,,,0.00,Wunderground v.1.15,2013-08-30 04:08:00,
2013-08-29 23:10:00,74.5,73.3,29.94,NNE,20,0.0,0.0,96,0.00,,,0.00,Wunderground v.1.15,2013-08-30 04:10:00,
2013-08-29 23:11:00,74.6,73.4,29.94,NNE,20,0.0,0.0,96,0.00,,,0.00,Wunderground v.1.15,2013-08-30 04:11:00,
2013-08-29 23:16:00,74.7,73.5,29.94,NNE,20,0.0,0.0,96,0.00,,,0.00,Wunderground v.1.15,2013-08-30 04:16:00,
2013-08-29 23:22:00,74.6,73.4,29.94,NNE,20,0.0,0.0,96,0.00,,,0.00,Wunderground v.1.15,2013-08-30 04:22:00,
2013-08-29 23:27:00,74.4,73.2,29.94,NNE,20,0.0,0.0,96,0.00,,,0.00,Wunderground v.1.15,2013-08-30 04:27:00,
2013-08-29 23:32:00,74.3,73.1,29.94,NNE,20,0.0,0.0,96,0.00,,,0.00,Wunderground v.1.15,2013-08-30 04:32:00,
2013-08-29 23:37:00,74.3,73.1,29.94,NNE,20,0.0,0.0,96,0.00,,,0.00,Wunderground v.1.15,2013-08-30 04:37:00,
2013-08-29 23:42:00,74.0,72.8,29.94,NNE,20,0.0,0.0,96,0.00,,,0.00,Wunderground v.1.15,2013-08-30 04:42:00,
2013-08-29 23:48:00,73.8,72.6,29.94,NNE,20,0.0,0.0,96,0.00,,,0.00,Wunderground v.1.15,2013-08-30 04:48:00,
2013-08-29 23:53:00,73.9,72.7,29.94,NNE,20,0.0,0.0,96,0.00,,,0.00,Wunderground v.1.15,2013-08-30 04:53:00,
2013-08-29 23:58:00,74.0,72.8,29.94,NNE,20,0.0,0.0,96,0.00,,,0.00,Wunderground v.1.15,2013-08-30 04:58:00,